sensor_id;sensor_type;location;lat;lon;timestamp;pressure;altitude;pressure_sealevel;temperature;humidity
5753;BME280;2901;42.140;24.760;2023-06-22T00:01:21;99646.31;;;24.62;79.57
5753;BME280;2901;42.140;24.760;2023-06-22T00:03:50;99654.53;;;24.58;80.02
5753;BME280;2901;42.140;24.760;2023-06-22T00:06:15;99651.41;;;24.51;80.02
5753;BME280;2901;42.140;24.760;2023-06-22T00:08:41;99653.97;;;24.53;80.23
5753;BME280;2901;42.140;24.760;2023-06-22T00:11:06;99658.47;;;24.51;80.74
5753;BME280;2901;42.140;24.760;2023-06-22T00:13:32;99668.81;;;24.55;80.30
5753;BME280;2901;42.140;24.760;2023-06-22T00:15:57;99664.44;;;24.54;81.07
5753;BME280;2901;42.140;24.760;2023-06-22T00:18:22;99660.19;;;24.52;81.68
5753;BME280;2901;42.140;24.760;2023-06-22T00:20:53;99656.69;;;24.51;82.53
5753;BME280;2901;42.140;24.760;2023-06-22T00:23:21;99666.03;;;24.57;82.44
5753;BME280;2901;42.140;24.760;2023-06-22T00:25:49;99672.00;;;24.60;82.30
5753;BME280;2901;42.140;24.760;2023-06-22T00:28:15;99672.00;;;24.60;81.86
5753;BME280;2901;42.140;24.760;2023-06-22T00:30:40;99675.63;;;24.59;82.68
5753;BME280;2901;42.140;24.760;2023-06-22T00:33:05;99671.84;;;24.49;84.59
5753;BME280;2901;42.140;24.760;2023-06-22T00:35:33;99674.00;;;24.43;85.10
5753;BME280;2901;42.140;24.760;2023-06-22T00:38:00;99678.63;;;24.39;85.47
5753;BME280;2901;42.140;24.760;2023-06-22T00:40:28;99681.16;;;24.41;85.41
5753;BME280;2901;42.140;24.760;2023-06-22T00:42:54;99681.16;;;24.41;85.31
5753;BME280;2901;42.140;24.760;2023-06-22T00:45:20;99673.31;;;24.39;85.32
5753;BME280;2901;42.140;24.760;2023-06-22T00:47:45;99682.69;;;24.45;85.39
5753;BME280;2901;42.140;24.760;2023-06-22T00:50:14;99688.09;;;24.43;85.70
5753;BME280;2901;42.140;24.760;2023-06-22T00:52:43;99681.47;;;24.36;85.66
5753;BME280;2901;42.140;24.760;2023-06-22T00:55:09;99681.16;;;24.26;85.83
5753;BME280;2901;42.140;24.760;2023-06-22T00:57:35;99672.72;;;24.20;86.37
5753;BME280;2901;42.140;24.760;2023-06-22T01:00:03;99672.41;;;24.10;86.84
5753;BME280;2901;42.140;24.760;2023-06-22T01:02:31;99674.63;;;24.02;86.89
5753;BME280;2901;42.140;24.760;2023-06-22T01:04:57;99678.38;;;23.98;87.12
5753;BME280;2901;42.140;24.760;2023-06-22T01:07:35;99683.00;;;23.95;87.03
5753;BME280;2901;42.140;24.760;2023-06-22T01:10:14;99683.28;;;23.90;87.45
5753;BME280;2901;42.140;24.760;2023-06-22T01:12:55;99678.94;;;23.89;87.02
5753;BME280;2901;42.140;24.760;2023-06-22T01:15:33;99675.78;;;23.83;86.96
5753;BME280;2901;42.140;24.760;2023-06-22T01:18:03;99682.00;;;23.82;87.03
5753;BME280;2901;42.140;24.760;2023-06-22T01:20:31;99680.66;;;23.74;87.47
5753;BME280;2901;42.140;24.760;2023-06-22T01:25:57;99678.47;;;23.67;87.42
5753;BME280;2901;42.140;24.760;2023-06-22T01:31:10;99665.84;;;23.56;89.00
5753;BME280;2901;42.140;24.760;2023-06-22T01:33:40;99663.72;;;23.47;90.13
5753;BME280;2901;42.140;24.760;2023-06-22T01:36:06;99674.75;;;23.38;90.86
5753;BME280;2901;42.140;24.760;2023-06-22T01:38:33;99675.09;;;23.32;91.73
5753;BME280;2901;42.140;24.760;2023-06-22T01:40:59;99667.88;;;23.20;92.23
5753;BME280;2901;42.140;24.760;2023-06-22T01:43:26;99662.00;;;23.15;92.62
5753;BME280;2901;42.140;24.760;2023-06-22T01:45:53;99664.53;;;23.16;92.46
5753;BME280;2901;42.140;24.760;2023-06-22T01:48:19;99660.28;;;23.14;93.22
5753;BME280;2901;42.140;24.760;2023-06-22T01:50:45;99653.63;;;23.07;92.04
5753;BME280;2901;42.140;24.760;2023-06-22T01:53:10;99665.06;;;23.07;92.87
5753;BME280;2901;42.140;24.760;2023-06-22T01:55:36;99668.03;;;23.01;93.53
5753;BME280;2901;42.140;24.760;2023-06-22T01:58:01;99664.78;;;22.96;93.98
5753;BME280;2901;42.140;24.760;2023-06-22T02:00:28;99665.63;;;22.97;94.37
5753;BME280;2901;42.140;24.760;2023-06-22T02:03:21;99670.16;;;22.95;93.74
5753;BME280;2901;42.140;24.760;2023-06-22T02:05:49;99680.38;;;22.85;93.27
5753;BME280;2901;42.140;24.760;2023-06-22T02:08:21;99679.69;;;22.82;93.31
5753;BME280;2901;42.140;24.760;2023-06-22T02:10:48;99679.06;;;22.77;92.53
5753;BME280;2901;42.140;24.760;2023-06-22T02:13:14;99666.50;;;22.64;92.79
5753;BME280;2901;42.140;24.760;2023-06-22T02:15:41;99668.06;;;22.51;93.70
5753;BME280;2901;42.140;24.760;2023-06-22T02:18:07;99669.31;;;22.44;94.62
5753;BME280;2901;42.140;24.760;2023-06-22T02:20:32;99677.31;;;22.43;94.91
5753;BME280;2901;42.140;24.760;2023-06-22T02:23:01;99679.00;;;22.44;94.87
5753;BME280;2901;42.140;24.760;2023-06-22T02:25:26;99679.00;;;22.44;95.01
5753;BME280;2901;42.140;24.760;2023-06-22T02:27:51;99684.56;;;22.39;95.50
5753;BME280;2901;42.140;24.760;2023-06-22T02:30:17;99685.47;;;22.38;96.14
5753;BME280;2901;42.140;24.760;2023-06-22T02:32:42;99681.44;;;22.31;96.43
5753;BME280;2901;42.140;24.760;2023-06-22T02:35:11;99678.97;;;22.11;97.24
5753;BME280;2901;42.140;24.760;2023-06-22T02:37:37;99688.09;;;22.04;98.10
5753;BME280;2901;42.140;24.760;2023-06-22T02:40:07;99691.75;;;22.01;98.24
5753;BME280;2901;42.140;24.760;2023-06-22T02:42:34;99684.88;;;21.99;98.28
5753;BME280;2901;42.140;24.760;2023-06-22T02:45:00;99682.78;;;21.87;98.56
5753;BME280;2901;42.140;24.760;2023-06-22T02:47:25;99694.84;;;21.92;98.21
5753;BME280;2901;42.140;24.760;2023-06-22T02:49:51;99694.56;;;21.98;98.37
5753;BME280;2901;42.140;24.760;2023-06-22T02:52:16;99681.69;;;21.92;97.46
5753;BME280;2901;42.140;24.760;2023-06-22T02:54:42;99696.81;;;22.06;96.96
5753;BME280;2901;42.140;24.760;2023-06-22T02:57:10;99697.81;;;22.03;96.92
5753;BME280;2901;42.140;24.760;2023-06-22T02:59:39;99695.56;;;21.96;96.94
5753;BME280;2901;42.140;24.760;2023-06-22T03:02:06;99700.53;;;22.02;96.70
5753;BME280;2901;42.140;24.760;2023-06-22T03:04:31;99696.63;;;21.92;96.94
5753;BME280;2901;42.140;24.760;2023-06-22T03:06:57;99708.97;;;21.91;96.46
5753;BME280;2901;42.140;24.760;2023-06-22T03:09:27;99709.84;;;21.73;97.36
5753;BME280;2901;42.140;24.760;2023-06-22T03:11:55;99713.00;;;21.62;98.48
5753;BME280;2901;42.140;24.760;2023-06-22T03:14:20;99718.41;;;21.59;98.43
5753;BME280;2901;42.140;24.760;2023-06-22T03:16:46;99713.34;;;21.55;99.19
5753;BME280;2901;42.140;24.760;2023-06-22T03:19:11;99706.50;;;21.51;98.74
5753;BME280;2901;42.140;24.760;2023-06-22T03:21:37;99708.22;;;21.52;98.25
5753;BME280;2901;42.140;24.760;2023-06-22T03:24:04;99718.56;;;21.56;98.19
5753;BME280;2901;42.140;24.760;2023-06-22T03:26:30;99722.69;;;21.62;96.02
5753;BME280;2901;42.140;24.760;2023-06-22T03:28:55;99716.41;;;21.64;95.04
5753;BME280;2901;42.140;24.760;2023-06-22T03:31:21;99717.34;;;21.63;94.69
5753;BME280;2901;42.140;24.760;2023-06-22T03:33:47;99733.16;;;21.63;94.87
5753;BME280;2901;42.140;24.760;2023-06-22T03:36:14;99730.59;;;21.62;94.86
5753;BME280;2901;42.140;24.760;2023-06-22T03:38:41;99732.88;;;21.51;95.29
5753;BME280;2901;42.140;24.760;2023-06-22T03:41:07;99724.91;;;21.52;95.39
5753;BME280;2901;42.140;24.760;2023-06-22T03:43:32;99727.94;;;21.62;95.56
5753;BME280;2901;42.140;24.760;2023-06-22T03:45:57;99737.94;;;21.55;96.16
5753;BME280;2901;42.140;24.760;2023-06-22T03:48:23;99728.44;;;21.51;96.34
5753;BME280;2901;42.140;24.760;2023-06-22T03:50:48;99726.38;;;21.58;95.88
5753;BME280;2901;42.140;24.760;2023-06-22T03:53:14;99733.06;;;21.65;96.07
5753;BME280;2901;42.140;24.760;2023-06-22T03:55:47;99737.47;;;21.64;96.03
5753;BME280;2901;42.140;24.760;2023-06-22T03:58:14;99730.53;;;21.63;96.38
5753;BME280;2901;42.140;24.760;2023-06-22T04:00:39;99725.81;;;21.70;96.08
5753;BME280;2901;42.140;24.760;2023-06-22T04:03:05;99722.78;;;21.78;96.17
5753;BME280;2901;42.140;24.760;2023-06-22T04:05:32;99727.13;;;21.79;95.99
5753;BME280;2901;42.140;24.760;2023-06-22T04:07:57;99717.16;;;21.85;96.21
5753;BME280;2901;42.140;24.760;2023-06-22T04:10:23;99718.88;;;21.86;96.29
5753;BME280;2901;42.140;24.760;2023-06-22T04:12:48;99723.63;;;21.97;95.92
5753;BME280;2901;42.140;24.760;2023-06-22T04:15:14;99728.47;;;22.06;94.80
5753;BME280;2901;42.140;24.760;2023-06-22T04:17:39;99736.13;;;22.10;94.75
5753;BME280;2901;42.140;24.760;2023-06-22T04:20:05;99735.22;;;22.11;95.09
5753;BME280;2901;42.140;24.760;2023-06-22T04:22:31;99734.44;;;22.27;94.19
5753;BME280;2901;42.140;24.760;2023-06-22T04:24:57;99732.19;;;22.36;94.31
5753;BME280;2901;42.140;24.760;2023-06-22T04:27:22;99738.94;;;22.42;94.17
5753;BME280;2901;42.140;24.760;2023-06-22T04:29:48;99733.25;;;22.49;93.59
5753;BME280;2901;42.140;24.760;2023-06-22T04:32:17;99731.25;;;22.54;93.34
5753;BME280;2901;42.140;24.760;2023-06-22T04:34:43;99726.84;;;22.55;93.32
5753;BME280;2901;42.140;24.760;2023-06-22T04:37:08;99729.72;;;22.67;92.51
5753;BME280;2901;42.140;24.760;2023-06-22T04:39:34;99730.69;;;22.82;93.01
5753;BME280;2901;42.140;24.760;2023-06-22T04:41:59;99741.75;;;23.06;92.15
5753;BME280;2901;42.140;24.760;2023-06-22T04:44:26;99735.81;;;23.18;90.49
5753;BME280;2901;42.140;24.760;2023-06-22T04:46:54;99745.72;;;23.30;89.84
5753;BME280;2901;42.140;24.760;2023-06-22T04:49:23;99739.41;;;23.33;88.87
5753;BME280;2901;42.140;24.760;2023-06-22T04:51:48;99740.50;;;23.28;89.04
5753;BME280;2901;42.140;24.760;2023-06-22T04:54:16;99741.47;;;23.27;89.21
5753;BME280;2901;42.140;24.760;2023-06-22T04:56:42;99735.16;;;23.30;89.20
5753;BME280;2901;42.140;24.760;2023-06-22T04:59:07;99733.25;;;23.32;90.19
5753;BME280;2901;42.140;24.760;2023-06-22T05:01:33;99719.13;;;23.49;89.29
5753;BME280;2901;42.140;24.760;2023-06-22T05:04:00;99729.75;;;23.64;88.38
5753;BME280;2901;42.140;24.760;2023-06-22T05:06:27;99714.44;;;23.69;87.76
5753;BME280;2901;42.140;24.760;2023-06-22T05:08:56;99720.06;;;23.79;87.70
5753;BME280;2901;42.140;24.760;2023-06-22T05:11:28;99710.59;;;23.91;87.64
5753;BME280;2901;42.140;24.760;2023-06-22T05:13:54;99712.94;;;23.95;87.11
5753;BME280;2901;42.140;24.760;2023-06-22T05:16:20;99723.47;;;23.97;86.63
5753;BME280;2901;42.140;24.760;2023-06-22T05:18:53;99722.59;;;23.96;87.67
5753;BME280;2901;42.140;24.760;2023-06-22T05:21:22;99718.56;;;24.05;87.18
5753;BME280;2901;42.140;24.760;2023-06-22T05:23:48;99725.47;;;24.23;85.95
5753;BME280;2901;42.140;24.760;2023-06-22T05:26:14;99721.16;;;24.36;84.66
5753;BME280;2901;42.140;24.760;2023-06-22T05:28:39;99713.59;;;24.44;85.39
5753;BME280;2901;42.140;24.760;2023-06-22T05:31:04;99723.75;;;24.52;85.27
5753;BME280;2901;42.140;24.760;2023-06-22T05:33:30;99728.22;;;24.65;85.05
5753;BME280;2901;42.140;24.760;2023-06-22T05:35:55;99728.03;;;24.68;85.50
5753;BME280;2901;42.140;24.760;2023-06-22T05:38:21;99724.16;;;24.60;85.64
5753;BME280;2901;42.140;24.760;2023-06-22T05:40:46;99723.00;;;24.64;86.17
5753;BME280;2901;42.140;24.760;2023-06-22T05:43:11;99722.34;;;24.74;86.13
5753;BME280;2901;42.140;24.760;2023-06-22T05:45:37;99718.72;;;24.91;84.95
5753;BME280;2901;42.140;24.760;2023-06-22T05:48:02;99714.91;;;25.09;84.51
5753;BME280;2901;42.140;24.760;2023-06-22T05:50:28;99721.53;;;25.16;83.73
5753;BME280;2901;42.140;24.760;2023-06-22T05:52:53;99726.22;;;25.40;82.43
5753;BME280;2901;42.140;24.760;2023-06-22T05:55:18;99718.94;;;25.57;81.14
5753;BME280;2901;42.140;24.760;2023-06-22T05:57:44;99727.63;;;25.59;80.68
5753;BME280;2901;42.140;24.760;2023-06-22T06:00:11;99721.09;;;25.65;79.08
5753;BME280;2901;42.140;24.760;2023-06-22T06:02:37;99714.16;;;25.76;78.88
5753;BME280;2901;42.140;24.760;2023-06-22T06:05:09;99713.03;;;25.93;77.56
5753;BME280;2901;42.140;24.760;2023-06-22T06:07:35;99713.19;;;26.04;76.83
5753;BME280;2901;42.140;24.760;2023-06-22T06:10:00;99722.09;;;26.03;75.70
5753;BME280;2901;42.140;24.760;2023-06-22T06:12:26;99721.03;;;26.06;75.41
5753;BME280;2901;42.140;24.760;2023-06-22T06:14:51;99721.94;;;26.19;74.88
5753;BME280;2901;42.140;24.760;2023-06-22T06:17:18;99715.28;;;26.26;73.91
5753;BME280;2901;42.140;24.760;2023-06-22T06:19:43;99713.06;;;26.33;73.24
5753;BME280;2901;42.140;24.760;2023-06-22T06:22:09;99710.53;;;26.31;72.91
5753;BME280;2901;42.140;24.760;2023-06-22T06:24:34;99708.09;;;26.41;73.25
5753;BME280;2901;42.140;24.760;2023-06-22T06:26:59;99710.75;;;26.53;72.29
5753;BME280;2901;42.140;24.760;2023-06-22T06:29:25;99708.97;;;26.66;71.34
5753;BME280;2901;42.140;24.760;2023-06-22T06:31:50;99710.97;;;26.75;69.95
5753;BME280;2901;42.140;24.760;2023-06-22T06:34:16;99708.00;;;26.80;68.88
5753;BME280;2901;42.140;24.760;2023-06-22T06:36:41;99705.44;;;26.78;69.11
5753;BME280;2901;42.140;24.760;2023-06-22T06:39:07;99711.41;;;26.95;69.80
5753;BME280;2901;42.140;24.760;2023-06-22T06:41:33;99698.63;;;27.12;69.83
5753;BME280;2901;42.140;24.760;2023-06-22T06:43:59;99709.03;;;27.28;66.92
5753;BME280;2901;42.140;24.760;2023-06-22T06:46:25;99704.09;;;27.47;65.33
5753;BME280;2901;42.140;24.760;2023-06-22T06:48:51;99715.31;;;27.63;65.06
5753;BME280;2901;42.140;24.760;2023-06-22T06:51:16;99703.91;;;27.74;63.22
5753;BME280;2901;42.140;24.760;2023-06-22T06:53:41;99705.88;;;27.83;62.23
5753;BME280;2901;42.140;24.760;2023-06-22T06:56:07;99698.50;;;27.87;62.70
5753;BME280;2901;42.140;24.760;2023-06-22T06:58:33;99704.47;;;28.14;63.87
5753;BME280;2901;42.140;24.760;2023-06-22T07:00:58;99703.72;;;28.47;62.00
5753;BME280;2901;42.140;24.760;2023-06-22T07:03:24;99692.63;;;28.75;59.63
5753;BME280;2901;42.140;24.760;2023-06-22T07:05:49;99708.28;;;28.79;58.70
5753;BME280;2901;42.140;24.760;2023-06-22T07:08:15;99701.25;;;28.78;59.50
5753;BME280;2901;42.140;24.760;2023-06-22T07:10:40;99694.13;;;28.90;58.21
5753;BME280;2901;42.140;24.760;2023-06-22T07:13:05;99699.19;;;28.71;58.43
5753;BME280;2901;42.140;24.760;2023-06-22T07:15:31;99691.75;;;28.63;58.34
5753;BME280;2901;42.140;24.760;2023-06-22T07:17:56;99697.00;;;28.76;59.50
5753;BME280;2901;42.140;24.760;2023-06-22T07:20:21;99709.88;;;28.93;59.36
5753;BME280;2901;42.140;24.760;2023-06-22T07:22:47;99704.91;;;29.00;58.27
5753;BME280;2901;42.140;24.760;2023-06-22T07:25:13;99697.16;;;29.08;57.83
5753;BME280;2901;42.140;24.760;2023-06-22T07:27:46;99699.84;;;29.08;58.06
5753;BME280;2901;42.140;24.760;2023-06-22T07:30:13;99702.25;;;29.11;56.37
5753;BME280;2901;42.140;24.760;2023-06-22T07:32:39;99705.97;;;29.08;57.74
5753;BME280;2901;42.140;24.760;2023-06-22T07:35:05;99717.38;;;28.99;56.81
5753;BME280;2901;42.140;24.760;2023-06-22T07:37:31;99714.56;;;28.78;56.21
5753;BME280;2901;42.140;24.760;2023-06-22T07:39:58;99710.09;;;28.79;57.48
5753;BME280;2901;42.140;24.760;2023-06-22T07:42:25;99710.97;;;28.91;55.54
5753;BME280;2901;42.140;24.760;2023-06-22T07:44:50;99704.88;;;28.89;55.17
5753;BME280;2901;42.140;24.760;2023-06-22T07:47:16;99713.16;;;28.97;53.87
5753;BME280;2901;42.140;24.760;2023-06-22T07:49:43;99714.59;;;29.12;53.57
5753;BME280;2901;42.140;24.760;2023-06-22T07:52:08;99702.22;;;29.22;52.09
5753;BME280;2901;42.140;24.760;2023-06-22T07:54:34;99698.03;;;29.30;51.70
5753;BME280;2901;42.140;24.760;2023-06-22T07:56:59;99702.47;;;29.41;52.09
5753;BME280;2901;42.140;24.760;2023-06-22T07:59:25;99701.94;;;29.58;51.90
5753;BME280;2901;42.140;24.760;2023-06-22T08:01:50;99691.59;;;29.76;52.15
5753;BME280;2901;42.140;24.760;2023-06-22T08:04:16;99691.16;;;30.03;50.48
5753;BME280;2901;42.140;24.760;2023-06-22T08:06:41;99696.19;;;30.17;49.31
5753;BME280;2901;42.140;24.760;2023-06-22T08:09:07;99689.56;;;30.32;50.08
5753;BME280;2901;42.140;24.760;2023-06-22T08:11:32;99688.28;;;30.47;46.66
5753;BME280;2901;42.140;24.760;2023-06-22T08:13:59;99687.41;;;30.47;46.47
5753;BME280;2901;42.140;24.760;2023-06-22T08:16:24;99689.88;;;30.38;47.23
5753;BME280;2901;42.140;24.760;2023-06-22T08:18:50;99680.03;;;30.39;47.44
5753;BME280;2901;42.140;24.760;2023-06-22T08:21:15;99685.66;;;30.36;46.48
5753;BME280;2901;42.140;24.760;2023-06-22T08:23:41;99680.66;;;30.43;45.59
5753;BME280;2901;42.140;24.760;2023-06-22T08:26:06;99684.75;;;30.47;45.34
5753;BME280;2901;42.140;24.760;2023-06-22T08:28:31;99679.72;;;30.53;45.31
5753;BME280;2901;42.140;24.760;2023-06-22T08:30:57;99685.44;;;30.69;45.20
5753;BME280;2901;42.140;24.760;2023-06-22T08:33:23;99672.38;;;30.97;42.87
5753;BME280;2901;42.140;24.760;2023-06-22T08:35:54;99663.88;;;31.22;42.89
5753;BME280;2901;42.140;24.760;2023-06-22T08:38:20;99673.19;;;31.27;40.85
5753;BME280;2901;42.140;24.760;2023-06-22T08:40:45;99664.31;;;31.27;41.80
5753;BME280;2901;42.140;24.760;2023-06-22T08:43:11;99649.53;;;31.42;41.44
5753;BME280;2901;42.140;24.760;2023-06-22T08:45:36;99656.22;;;31.57;40.16
5753;BME280;2901;42.140;24.760;2023-06-22T08:48:02;99662.72;;;31.64;40.76
5753;BME280;2901;42.140;24.760;2023-06-22T08:50:27;99659.34;;;31.81;41.63
5753;BME280;2901;42.140;24.760;2023-06-22T08:52:53;99657.66;;;32.00;40.66
5753;BME280;2901;42.140;24.760;2023-06-22T08:55:18;99663.03;;;31.90;40.24
5753;BME280;2901;42.140;24.760;2023-06-22T08:57:43;99666.09;;;31.66;40.76
5753;BME280;2901;42.140;24.760;2023-06-22T09:00:09;99668.78;;;31.76;41.24
5753;BME280;2901;42.140;24.760;2023-06-22T09:02:46;99664.56;;;31.83;40.61
5753;BME280;2901;42.140;24.760;2023-06-22T09:05:12;99664.28;;;31.96;39.61
5753;BME280;2901;42.140;24.760;2023-06-22T09:07:37;99665.88;;;32.17;39.20
5753;BME280;2901;42.140;24.760;2023-06-22T09:10:04;99668.81;;;32.24;38.31
5753;BME280;2901;42.140;24.760;2023-06-22T09:12:33;99663.41;;;32.43;36.13
5753;BME280;2901;42.140;24.760;2023-06-22T09:14:59;99662.13;;;32.66;36.28
5753;BME280;2901;42.140;24.760;2023-06-22T09:17:28;99657.06;;;32.90;36.78
5753;BME280;2901;42.140;24.760;2023-06-22T09:19:54;99653.88;;;33.14;35.40
5753;BME280;2901;42.140;24.760;2023-06-22T09:22:19;99652.84;;;33.25;35.81
5753;BME280;2901;42.140;24.760;2023-06-22T09:24:45;99648.44;;;33.51;34.12
5753;BME280;2901;42.140;24.760;2023-06-22T09:27:10;99655.75;;;33.76;33.41
5753;BME280;2901;42.140;24.760;2023-06-22T09:29:36;99649.09;;;33.98;33.42
5753;BME280;2901;42.140;24.760;2023-06-22T09:32:01;99631.88;;;33.91;32.78
5753;BME280;2901;42.140;24.760;2023-06-22T09:34:26;99645.84;;;33.95;33.58
5753;BME280;2901;42.140;24.760;2023-06-22T09:36:52;99642.84;;;33.80;34.61
5753;BME280;2901;42.140;24.760;2023-06-22T09:39:18;99630.59;;;33.50;34.76
5753;BME280;2901;42.140;24.760;2023-06-22T09:41:44;99642.41;;;33.39;34.55
5753;BME280;2901;42.140;24.760;2023-06-22T09:44:09;99638.97;;;33.47;33.78
5753;BME280;2901;42.140;24.760;2023-06-22T09:46:34;99640.56;;;33.22;34.05
5753;BME280;2901;42.140;24.760;2023-06-22T09:49:00;99641.19;;;33.34;34.08
5753;BME280;2901;42.140;24.760;2023-06-22T09:51:25;99630.47;;;33.52;34.07
5753;BME280;2901;42.140;24.760;2023-06-22T09:53:51;99634.47;;;33.83;34.36
5753;BME280;2901;42.140;24.760;2023-06-22T09:56:17;99630.97;;;34.18;33.42
5753;BME280;2901;42.140;24.760;2023-06-22T09:58:43;99637.19;;;34.44;32.39
5753;BME280;2901;42.140;24.760;2023-06-22T10:01:09;99639.66;;;34.12;32.10
5753;BME280;2901;42.140;24.760;2023-06-22T10:03:35;99639.31;;;33.97;32.27
5753;BME280;2901;42.140;24.760;2023-06-22T10:06:01;99629.19;;;33.73;32.53
5753;BME280;2901;42.140;24.760;2023-06-22T10:08:26;99639.34;;;33.62;33.15
5753;BME280;2901;42.140;24.760;2023-06-22T10:10:52;99626.28;;;33.67;32.94
5753;BME280;2901;42.140;24.760;2023-06-22T10:13:17;99631.66;;;33.67;32.39
5753;BME280;2901;42.140;24.760;2023-06-22T10:15:44;99626.59;;;33.36;33.48
5753;BME280;2901;42.140;24.760;2023-06-22T10:18:17;99631.63;;;33.49;33.29
5753;BME280;2901;42.140;24.760;2023-06-22T10:20:43;99628.63;;;33.52;33.28
5753;BME280;2901;42.140;24.760;2023-06-22T10:23:09;99632.81;;;33.82;32.07
5753;BME280;2901;42.140;24.760;2023-06-22T10:25:34;99625.66;;;34.08;32.45
5753;BME280;2901;42.140;24.760;2023-06-22T10:27:59;99619.25;;;34.27;31.45
5753;BME280;2901;42.140;24.760;2023-06-22T10:30:25;99617.00;;;34.48;31.76
5753;BME280;2901;42.140;24.760;2023-06-22T10:32:50;99618.28;;;34.87;31.16
5753;BME280;2901;42.140;24.760;2023-06-22T10:35:16;99614.56;;;35.22;29.78
5753;BME280;2901;42.140;24.760;2023-06-22T10:37:45;99595.88;;;35.37;29.88
5753;BME280;2901;42.140;24.760;2023-06-22T10:40:15;99602.97;;;35.38;29.67
5753;BME280;2901;42.140;24.760;2023-06-22T10:42:41;99592.91;;;35.40;29.76
5753;BME280;2901;42.140;24.760;2023-06-22T10:45:07;99593.72;;;35.32;29.37
5753;BME280;2901;42.140;24.760;2023-06-22T10:47:33;99596.06;;;35.35;29.16
5753;BME280;2901;42.140;24.760;2023-06-22T10:49:59;99587.44;;;35.24;29.47
5753;BME280;2901;42.140;24.760;2023-06-22T10:52:24;99581.72;;;35.19;29.59
5753;BME280;2901;42.140;24.760;2023-06-22T10:54:50;99584.34;;;35.03;30.25
5753;BME280;2901;42.140;24.760;2023-06-22T10:57:15;99580.28;;;34.90;30.50
5753;BME280;2901;42.140;24.760;2023-06-22T10:59:40;99588.63;;;34.79;29.49
5753;BME280;2901;42.140;24.760;2023-06-22T11:02:06;99582.59;;;34.85;30.04
5753;BME280;2901;42.140;24.760;2023-06-22T11:04:31;99579.63;;;35.05;29.99
5753;BME280;2901;42.140;24.760;2023-06-22T11:06:57;99580.06;;;35.34;29.25
5753;BME280;2901;42.140;24.760;2023-06-22T11:09:22;99573.75;;;35.59;28.29
5753;BME280;2901;42.140;24.760;2023-06-22T11:11:50;99580.78;;;35.52;28.32
5753;BME280;2901;42.140;24.760;2023-06-22T11:14:15;99574.19;;;35.55;28.58
5753;BME280;2901;42.140;24.760;2023-06-22T11:16:41;99575.44;;;35.68;28.64
5753;BME280;2901;42.140;24.760;2023-06-22T11:19:06;99568.19;;;35.69;28.44
5753;BME280;2901;42.140;24.760;2023-06-22T11:21:32;99565.47;;;35.77;28.25
5753;BME280;2901;42.140;24.760;2023-06-22T11:23:59;99572.84;;;35.51;28.93
5753;BME280;2901;42.140;24.760;2023-06-22T11:26:25;99577.06;;;35.45;29.40
5753;BME280;2901;42.140;24.760;2023-06-22T11:28:52;99572.66;;;35.44;29.34
5753;BME280;2901;42.140;24.760;2023-06-22T11:31:18;99572.81;;;35.34;29.32
5753;BME280;2901;42.140;24.760;2023-06-22T11:33:43;99571.81;;;35.35;29.43
5753;BME280;2901;42.140;24.760;2023-06-22T11:36:11;99573.34;;;35.38;29.95
5753;BME280;2901;42.140;24.760;2023-06-22T11:38:36;99565.78;;;35.50;30.18
5753;BME280;2901;42.140;24.760;2023-06-22T11:41:06;99571.81;;;35.27;29.55
5753;BME280;2901;42.140;24.760;2023-06-22T11:43:31;99578.09;;;35.60;28.17
5753;BME280;2901;42.140;24.760;2023-06-22T11:45:57;99573.06;;;35.81;28.47
5753;BME280;2901;42.140;24.760;2023-06-22T11:48:24;99575.41;;;35.84;28.10
5753;BME280;2901;42.140;24.760;2023-06-22T11:50:49;99550.84;;;35.79;28.89
5753;BME280;2901;42.140;24.760;2023-06-22T11:53:15;99569.38;;;35.82;28.10
5753;BME280;2901;42.140;24.760;2023-06-22T11:55:44;99560.06;;;36.01;28.84
5753;BME280;2901;42.140;24.760;2023-06-22T11:58:10;99565.66;;;36.08;28.39
5753;BME280;2901;42.140;24.760;2023-06-22T12:00:37;99566.66;;;36.15;28.38
5753;BME280;2901;42.140;24.760;2023-06-22T12:03:02;99562.28;;;36.06;27.92
5753;BME280;2901;42.140;24.760;2023-06-22T12:05:28;99562.78;;;36.25;28.34
5753;BME280;2901;42.140;24.760;2023-06-22T12:07:53;99564.72;;;36.48;28.21
5753;BME280;2901;42.140;24.760;2023-06-22T12:10:20;99562.03;;;36.48;27.72
5753;BME280;2901;42.140;24.760;2023-06-22T12:12:45;99552.75;;;36.89;27.03
5753;BME280;2901;42.140;24.760;2023-06-22T12:15:11;99550.03;;;37.28;27.83
5753;BME280;2901;42.140;24.760;2023-06-22T12:17:36;99546.44;;;37.58;26.98
5753;BME280;2901;42.140;24.760;2023-06-22T12:20:02;99547.19;;;37.89;27.43
5753;BME280;2901;42.140;24.760;2023-06-22T12:22:31;99543.91;;;38.17;26.64
5753;BME280;2901;42.140;24.760;2023-06-22T12:24:57;99542.66;;;38.05;27.46
5753;BME280;2901;42.140;24.760;2023-06-22T12:27:22;99547.38;;;37.88;27.17
5753;BME280;2901;42.140;24.760;2023-06-22T12:29:48;99530.50;;;37.86;27.29
5753;BME280;2901;42.140;24.760;2023-06-22T12:32:14;99534.28;;;36.70;28.14
5753;BME280;2901;42.140;24.760;2023-06-22T12:34:42;99535.22;;;36.54;28.00
5753;BME280;2901;42.140;24.760;2023-06-22T12:37:08;99532.19;;;36.41;28.48
5753;BME280;2901;42.140;24.760;2023-06-22T12:39:33;99527.25;;;36.61;29.11
5753;BME280;2901;42.140;24.760;2023-06-22T12:41:59;99523.19;;;36.96;28.73
5753;BME280;2901;42.140;24.760;2023-06-22T12:44:25;99518.75;;;37.11;27.73
5753;BME280;2901;42.140;24.760;2023-06-22T12:46:50;99516.28;;;37.24;27.44
5753;BME280;2901;42.140;24.760;2023-06-22T12:49:15;99512.91;;;37.44;27.70
5753;BME280;2901;42.140;24.760;2023-06-22T12:51:42;99516.44;;;37.45;28.01
5753;BME280;2901;42.140;24.760;2023-06-22T12:54:07;99515.31;;;37.39;27.63
5753;BME280;2901;42.140;24.760;2023-06-22T12:56:33;99515.59;;;37.44;28.05
5753;BME280;2901;42.140;24.760;2023-06-22T12:58:59;99518.91;;;37.32;28.07
5753;BME280;2901;42.140;24.760;2023-06-22T13:01:28;99517.97;;;37.25;28.33
5753;BME280;2901;42.140;24.760;2023-06-22T13:03:53;99520.28;;;37.05;28.93
5753;BME280;2901;42.140;24.760;2023-06-22T13:06:19;99521.78;;;36.77;29.09
5753;BME280;2901;42.140;24.760;2023-06-22T13:08:44;99522.34;;;36.64;28.79
5753;BME280;2901;42.140;24.760;2023-06-22T13:11:10;99521.63;;;36.23;29.81